createdAt,value
2022-10-27T00:01:29.530Z,12.57
2022-10-27T00:03:57.958Z,12.88
2022-10-27T00:06:26.435Z,12.45
2022-10-27T00:08:55.041Z,11.65
2022-10-27T00:11:23.716Z,12.68
2022-10-27T00:13:53.487Z,11.55
2022-10-27T00:16:21.943Z,12.45
2022-10-27T00:18:50.160Z,12.98
2022-10-27T00:21:20.715Z,12.50
2022-10-27T00:23:50.453Z,12.05
2022-10-27T00:26:20.614Z,11.32
2022-10-27T00:28:49.259Z,12.25
2022-10-27T00:31:21.621Z,11.15
2022-10-27T00:33:51.227Z,12.93
2022-10-27T00:36:21.407Z,12.63
2022-10-27T00:38:49.748Z,11.45
2022-10-27T00:41:27.254Z,13.02
2022-10-27T00:43:55.925Z,12.10
2022-10-27T00:46:35.365Z,11.55
2022-10-27T00:49:07.530Z,11.85
2022-10-27T00:51:36.974Z,11.63
2022-10-27T00:54:05.840Z,11.25
2022-10-27T00:56:34.628Z,11.27
2022-10-27T00:59:03.532Z,12.45
2022-10-27T01:01:34.218Z,12.77
2022-10-27T01:04:03.427Z,11.70
2022-10-27T01:06:32.125Z,11.93
2022-10-27T01:09:01.144Z,12.07
2022-10-27T01:11:29.596Z,11.70
2022-10-27T01:13:58.073Z,12.27
2022-10-27T01:16:38.358Z,11.82
2022-10-27T01:19:20.057Z,11.65
2022-10-27T01:22:07.913Z,12.95
2022-10-27T01:24:44.950Z,12.20
2022-10-27T01:27:43.081Z,12.93
2022-10-27T01:30:13.374Z,13.70
2022-10-27T01:32:52.312Z,12.32
2022-10-27T01:35:31.533Z,11.75
2022-10-27T01:38:11.495Z,13.48
2022-10-27T01:40:46.684Z,13.25
2022-10-27T01:43:19.752Z,14.02
2022-10-27T01:45:49.671Z,13.10
2022-10-27T01:48:20.852Z,13.93
2022-10-27T01:51:04.736Z,13.32
2022-10-27T01:53:36.749Z,14.70
2022-10-27T01:56:27.678Z,12.70
2022-10-27T01:59:15.579Z,14.20
2022-10-27T02:01:52.872Z,12.63
2022-10-27T02:04:31.959Z,13.52
2022-10-27T02:07:07.189Z,14.18
2022-10-27T02:09:42.183Z,13.57
2022-10-27T02:12:17.031Z,14.57
2022-10-27T02:14:46.764Z,13.65
2022-10-27T02:17:15.503Z,12.75
2022-10-27T02:19:47.672Z,12.63
2022-10-27T02:22:17.019Z,13.20
2022-10-27T02:24:45.768Z,12.50
2022-10-27T02:27:19.672Z,11.95
2022-10-27T02:29:50.439Z,12.20
2022-10-27T02:32:21.733Z,13.75
2022-10-27T02:34:53.105Z,13.05
2022-10-27T02:37:27.888Z,12.23
2022-10-27T02:39:56.925Z,12.30
2022-10-27T02:42:25.507Z,11.82
2022-10-27T02:44:54.094Z,11.85
2022-10-27T02:47:22.538Z,13.35
2022-10-27T02:49:52.719Z,13.18
2022-10-27T02:52:21.097Z,12.15
2022-10-27T02:54:49.661Z,12.38
2022-10-27T02:57:19.295Z,11.98
2022-10-27T02:59:51.227Z,10.90
2022-10-27T03:02:24.041Z,11.80
2022-10-27T03:04:54.060Z,11.90
2022-10-27T03:07:22.385Z,11.32
2022-10-27T03:09:51.147Z,12.27
2022-10-27T03:12:19.583Z,11.52
2022-10-27T03:14:48.194Z,11.55
2022-10-27T03:17:16.666Z,12.65
2022-10-27T03:19:45.403Z,12.15
2022-10-27T03:22:15.159Z,11.68
2022-10-27T03:24:43.771Z,10.88
2022-10-27T03:27:12.100Z,11.27
2022-10-27T03:29:40.584Z,9.82
2022-10-27T03:32:08.996Z,11.05
2022-10-27T03:34:37.694Z,11.32
2022-10-27T03:37:06.136Z,12.45
2022-10-27T03:39:36.178Z,11.57
2022-10-27T03:42:05.259Z,10.18
2022-10-27T03:44:33.802Z,11.25
2022-10-27T03:47:02.060Z,12.13
2022-10-27T03:49:30.536Z,9.85
2022-10-27T03:51:58.914Z,10.60
2022-10-27T03:54:30.946Z,10.43
2022-10-27T03:57:00.634Z,9.90
2022-10-27T03:59:29.240Z,11.00
2022-10-27T04:01:58.647Z,10.43
2022-10-27T04:04:29.506Z,11.80
2022-10-27T04:06:57.836Z,12.40
2022-10-27T04:09:26.267Z,10.40
2022-10-27T04:11:54.627Z,10.82
2022-10-27T04:14:25.059Z,9.75
2022-10-27T04:16:54.025Z,9.82
2022-10-27T04:19:23.125Z,11.68
2022-10-27T04:21:51.492Z,11.18
2022-10-27T04:24:20.357Z,11.77
2022-10-27T04:26:48.746Z,9.75
2022-10-27T04:29:17.145Z,10.23
2022-10-27T04:31:46.765Z,9.90
2022-10-27T04:34:16.683Z,10.32
2022-10-27T04:36:45.142Z,11.15
2022-10-27T04:39:15.159Z,12.57
2022-10-27T04:41:43.546Z,12.52
2022-10-27T04:44:12.034Z,11.73
2022-10-27T04:46:40.930Z,11.70
2022-10-27T04:49:10.733Z,12.55
2022-10-27T04:51:38.980Z,11.35
2022-10-27T04:54:07.399Z,12.30
2022-10-27T04:56:35.749Z,10.57
2022-10-27T04:59:04.303Z,11.52
2022-10-27T05:01:32.663Z,10.68
2022-10-27T05:04:01.365Z,11.85
2022-10-27T05:06:31.188Z,11.48
2022-10-27T05:08:59.610Z,10.82
2022-10-27T05:11:28.233Z,11.18
2022-10-27T05:13:56.645Z,10.68
2022-10-27T05:16:24.908Z,10.68
2022-10-27T05:18:53.481Z,11.13
2022-10-27T05:21:21.723Z,9.60
2022-10-27T05:23:51.699Z,11.02
2022-10-27T05:26:20.006Z,10.13
2022-10-27T05:28:49.544Z,11.05
2022-10-27T05:31:18.098Z,11.30
2022-10-27T05:33:46.782Z,9.93
2022-10-27T05:36:15.280Z,10.57
2022-10-27T05:38:46.026Z,11.38
2022-10-27T05:41:15.863Z,11.05
2022-10-27T05:43:44.434Z,12.07
2022-10-27T05:46:12.736Z,10.75
2022-10-27T05:48:41.425Z,10.65
2022-10-27T05:51:09.701Z,11.55
2022-10-27T05:53:38.306Z,12.82
2022-10-27T05:56:06.687Z,13.15
2022-10-27T05:58:36.625Z,12.65
2022-10-27T06:01:05.255Z,11.75
2022-10-27T06:03:33.851Z,11.63
2022-10-27T06:06:05.179Z,13.40
2022-10-27T06:08:33.741Z,11.63
2022-10-27T06:11:03.236Z,13.55
2022-10-27T06:13:32.053Z,13.50
2022-10-27T06:16:01.794Z,13.07
2022-10-27T06:18:30.400Z,14.30
2022-10-27T06:20:58.687Z,13.55
2022-10-27T06:23:27.435Z,12.32
2022-10-27T06:25:56.852Z,14.35
2022-10-27T06:28:25.577Z,13.37
2022-10-27T06:30:55.175Z,13.52
2022-10-27T06:33:25.194Z,13.18
2022-10-27T06:35:53.475Z,15.88
2022-10-27T06:38:22.137Z,13.02
2022-10-27T06:40:50.426Z,15.50
2022-10-27T06:43:18.910Z,14.68
2022-10-27T06:45:48.986Z,14.75
2022-10-27T06:48:17.875Z,15.10
2022-10-27T06:50:47.492Z,14.48
2022-10-27T06:53:15.963Z,14.13
2022-10-27T06:55:44.365Z,16.38
2022-10-27T06:58:13.558Z,14.13
2022-10-27T07:00:41.891Z,17.38
2022-10-27T07:05:44.205Z,16.58
2022-10-27T07:08:14.128Z,15.77
2022-10-27T07:10:42.499Z,15.98
2022-10-27T07:13:11.135Z,18.27
2022-10-27T07:15:39.424Z,13.75
2022-10-27T07:18:09.801Z,16.27
2022-10-27T07:20:40.078Z,16.13
2022-10-27T07:23:09.678Z,15.63
2022-10-27T07:25:40.218Z,15.90
2022-10-27T07:28:09.239Z,15.48
2022-10-27T07:30:39.984Z,16.10
2022-10-27T07:33:08.798Z,15.52
2022-10-27T07:35:37.253Z,18.85
2022-10-27T07:38:06.870Z,17.00
2022-10-27T07:40:35.960Z,17.38
2022-10-27T07:43:08.595Z,19.30
2022-10-27T07:45:38.551Z,18.95
2022-10-27T07:48:08.386Z,18.60
2022-10-27T07:50:36.878Z,17.50
2022-10-27T07:53:06.040Z,16.98
2022-10-27T07:55:36.867Z,16.40
2022-10-27T07:58:08.733Z,18.15
2022-10-27T08:00:39.537Z,17.27
2022-10-27T08:03:11.637Z,15.63
2022-10-27T08:05:39.988Z,16.50
2022-10-27T08:08:09.954Z,16.58
2022-10-27T08:10:40.006Z,17.90
2022-10-27T08:13:10.886Z,19.27
2022-10-27T08:15:41.065Z,17.27
2022-10-27T08:18:10.961Z,17.25
2022-10-27T08:20:41.048Z,16.42
2022-10-27T08:23:12.245Z,17.92
2022-10-27T08:25:41.266Z,16.95
2022-10-27T08:28:12.359Z,17.00
2022-10-27T08:30:47.152Z,14.85
2022-10-27T08:33:20.800Z,15.15
2022-10-27T08:35:50.102Z,16.70
2022-10-27T08:38:19.688Z,17.15
2022-10-27T08:41:14.801Z,15.10
2022-10-27T08:44:08.134Z,15.05
2022-10-27T08:46:42.687Z,12.70
2022-10-27T08:49:30.115Z,12.77
2022-10-27T08:52:04.880Z,10.88
2022-10-27T08:54:33.936Z,11.88
2022-10-27T08:57:04.822Z,12.32
2022-10-27T08:59:39.130Z,12.90
2022-10-27T09:02:29.359Z,12.13
2022-10-27T09:05:17.395Z,12.52
2022-10-27T09:07:54.307Z,11.50
2022-10-27T09:10:39.853Z,11.48
2022-10-27T09:13:18.730Z,10.20
2022-10-27T09:15:51.617Z,11.45
2022-10-27T09:18:25.424Z,10.88
2022-10-27T09:20:56.919Z,10.93
2022-10-27T09:23:30.181Z,11.45
2022-10-27T09:26:00.230Z,9.63
2022-10-27T09:28:33.045Z,11.02
2022-10-27T09:31:05.743Z,10.07
2022-10-27T09:33:36.273Z,10.95
2022-10-27T09:36:14.647Z,11.35
2022-10-27T09:38:43.335Z,10.75
2022-10-27T09:41:11.909Z,10.43
2022-10-27T09:43:40.439Z,10.15
2022-10-27T09:46:20.843Z,10.52
2022-10-27T09:48:55.690Z,10.35
2022-10-27T09:51:27.640Z,9.23
2022-10-27T09:53:56.055Z,9.68
2022-10-27T09:56:27.625Z,8.52
2022-10-27T09:59:00.180Z,9.05
2022-10-27T10:01:49.868Z,8.80
2022-10-27T10:04:21.919Z,9.95
2022-10-27T10:06:58.267Z,8.98
2022-10-27T10:09:31.616Z,8.77
2022-10-27T10:12:22.998Z,9.70
2022-10-27T10:14:52.739Z,9.10
2022-10-27T10:17:25.584Z,9.13
2022-10-27T10:19:55.669Z,8.77
2022-10-27T10:22:27.964Z,8.02
2022-10-27T10:24:58.828Z,7.30
2022-10-27T10:27:30.418Z,9.07
2022-10-27T10:30:01.616Z,7.55
2022-10-27T10:32:33.587Z,8.55
2022-10-27T10:35:01.954Z,7.57
2022-10-27T10:37:39.693Z,8.02
2022-10-27T10:40:28.652Z,7.47
2022-10-27T10:43:06.409Z,6.85
2022-10-27T10:45:37.332Z,7.68
2022-10-27T10:48:17.099Z,6.43
2022-10-27T10:50:48.436Z,7.18
2022-10-27T10:53:27.742Z,7.30
2022-10-27T10:56:03.057Z,6.85
2022-10-27T10:58:34.600Z,6.47
2022-10-27T11:01:05.422Z,7.53
2022-10-27T11:03:37.907Z,6.13
2022-10-27T11:06:16.563Z,5.72
2022-10-27T11:08:45.896Z,6.38
2022-10-27T11:11:19.244Z,6.45
2022-10-27T11:13:52.718Z,7.15
2022-10-27T11:16:22.534Z,6.80
2022-10-27T11:18:54.259Z,6.60
2022-10-27T11:21:36.591Z,5.97
2022-10-27T11:24:13.581Z,6.65
2022-10-27T11:26:54.125Z,6.88
2022-10-27T11:29:28.844Z,5.70
2022-10-27T11:32:07.877Z,6.25
2022-10-27T11:34:43.727Z,5.70
2022-10-27T11:37:17.701Z,6.15
2022-10-27T11:39:54.230Z,5.50
2022-10-27T11:42:30.475Z,5.70
2022-10-27T11:45:10.091Z,6.18
2022-10-27T11:47:43.216Z,5.22
2022-10-27T11:50:16.834Z,5.82
2022-10-27T11:52:48.163Z,5.13
2022-10-27T11:55:19.639Z,5.10
2022-10-27T11:57:52.858Z,4.35
2022-10-27T12:00:23.686Z,5.15
2022-10-27T12:03:48.816Z,5.22
2022-10-27T12:06:27.584Z,4.60
2022-10-27T12:09:05.168Z,4.80
2022-10-27T12:11:45.113Z,4.47
2022-10-27T12:14:22.142Z,4.22
2022-10-27T12:16:56.140Z,3.70
2022-10-27T12:19:28.878Z,3.70
2022-10-27T12:22:08.477Z,3.85
2022-10-27T12:24:41.727Z,3.75
2022-10-27T12:27:14.624Z,5.65
2022-10-27T12:29:47.519Z,5.55
2022-10-27T12:32:22.372Z,5.15
2022-10-27T12:34:56.465Z,4.50
2022-10-27T12:40:09.382Z,4.25
2022-10-27T12:42:47.277Z,5.05
2022-10-27T12:45:37.055Z,5.00
2022-10-27T12:48:13.164Z,5.45
2022-10-27T12:50:49.797Z,5.80
2022-10-27T12:53:32.422Z,4.95
2022-10-27T12:56:05.639Z,5.28
2022-10-27T12:58:44.497Z,5.40
2022-10-27T13:01:29.096Z,5.35
2022-10-27T13:04:39.510Z,4.20
2022-10-27T13:07:28.929Z,4.88
2022-10-27T13:10:17.993Z,5.05
2022-10-27T13:12:59.019Z,4.65
2022-10-27T13:15:56.945Z,4.07
2022-10-27T13:18:52.256Z,4.70
2022-10-27T13:21:26.667Z,4.95
2022-10-27T13:24:06.273Z,4.50
2022-10-27T13:26:43.794Z,4.07
2022-10-27T13:29:22.434Z,4.10
2022-10-27T13:32:20.633Z,4.60
2022-10-27T13:35:22.450Z,4.65
2022-10-27T13:38:12.272Z,4.47
2022-10-27T13:40:40.853Z,4.45
2022-10-27T13:43:42.297Z,5.10
2022-10-27T13:46:12.288Z,4.80
2022-10-27T13:48:48.433Z,4.03
2022-10-27T13:51:48.695Z,4.47
2022-10-27T13:54:52.175Z,4.55
2022-10-27T13:57:58.985Z,3.55
2022-10-27T14:00:49.508Z,3.65
2022-10-27T14:06:20.620Z,4.30
2022-10-27T14:08:51.912Z,5.25
2022-10-27T14:11:23.951Z,4.88
2022-10-27T14:13:54.761Z,4.72
2022-10-27T14:16:26.568Z,5.15
2022-10-27T14:19:05.545Z,4.40
2022-10-27T14:21:37.839Z,5.13
2022-10-27T14:24:12.144Z,4.55
2022-10-27T14:26:40.714Z,4.60
2022-10-27T14:29:21.483Z,5.35
2022-10-27T14:31:50.107Z,5.85
2022-10-27T14:34:23.932Z,4.70
2022-10-27T14:36:54.528Z,5.57
2022-10-27T14:39:28.531Z,5.50
2022-10-27T14:42:02.325Z,6.28
2022-10-27T14:44:32.975Z,5.97
2022-10-27T14:47:06.551Z,5.55
2022-10-27T14:49:40.057Z,5.95
2022-10-27T14:52:17.082Z,6.22
2022-10-27T14:54:52.034Z,6.20
2022-10-27T14:57:31.763Z,6.13
2022-10-27T15:00:01.771Z,6.13
2022-10-27T15:02:31.849Z,5.97
2022-10-27T15:05:21.653Z,6.60
2022-10-27T15:07:53.840Z,6.20
2022-10-27T15:10:22.894Z,7.00
2022-10-27T15:12:55.792Z,6.60
2022-10-27T15:15:29.790Z,6.40
2022-10-27T15:17:58.930Z,7.03
2022-10-27T15:20:28.899Z,7.97
2022-10-27T15:22:58.046Z,6.35
2022-10-27T15:25:31.012Z,7.38
2022-10-27T15:28:00.828Z,7.05
2022-10-27T15:30:29.538Z,6.88
2022-10-27T15:32:59.552Z,7.68
2022-10-27T15:35:35.250Z,7.47
2022-10-27T15:38:05.021Z,7.32
2022-10-27T15:40:43.800Z,7.63
2022-10-27T15:43:24.560Z,7.28
2022-10-27T15:45:54.075Z,7.82
2022-10-27T15:48:44.022Z,8.23
2022-10-27T15:51:17.020Z,8.15
2022-10-27T15:53:50.061Z,8.75
2022-10-27T15:56:38.992Z,7.57
2022-10-27T15:59:16.900Z,6.93
2022-10-27T16:01:47.171Z,8.73
2022-10-27T16:04:29.078Z,8.63
2022-10-27T16:07:34.617Z,8.07
2022-10-27T16:10:06.214Z,8.07
2022-10-27T16:12:42.576Z,8.93
2022-10-27T16:15:21.763Z,9.10
2022-10-27T16:17:52.293Z,8.27
2022-10-27T16:20:23.205Z,8.90
2022-10-27T16:22:53.784Z,9.00
2022-10-27T16:25:27.843Z,8.07
2022-10-27T16:27:56.165Z,8.50
2022-10-27T16:30:24.993Z,7.82
2022-10-27T16:33:00.644Z,8.43
2022-10-27T16:35:29.889Z,9.63
2022-10-27T16:38:01.149Z,8.20
2022-10-27T16:40:30.190Z,9.00
2022-10-27T16:42:58.593Z,10.45
2022-10-27T16:45:27.995Z,10.10
2022-10-27T16:47:56.627Z,10.27
2022-10-27T16:50:25.559Z,9.75
2022-10-27T16:52:54.197Z,9.40
2022-10-27T16:55:24.794Z,10.20
2022-10-27T16:57:57.013Z,10.65
2022-10-27T17:00:25.958Z,11.27
2022-10-27T17:02:54.517Z,9.90
2022-10-27T17:05:23.666Z,11.25
2022-10-27T17:07:52.280Z,10.73
2022-10-27T17:10:21.281Z,11.43
2022-10-27T17:12:51.400Z,11.18
2022-10-27T17:15:20.262Z,11.27
2022-10-27T17:17:48.555Z,11.07
2022-10-27T17:20:17.151Z,10.40
2022-10-27T17:22:45.758Z,11.35
2022-10-27T17:25:14.585Z,10.05
2022-10-27T17:27:42.991Z,10.30
2022-10-27T17:30:13.906Z,11.15
2022-10-27T17:32:42.629Z,10.40
2022-10-27T17:35:11.258Z,11.52
2022-10-27T17:37:39.588Z,13.02
2022-10-27T17:40:09.515Z,13.40
2022-10-27T17:42:37.928Z,14.98
2022-10-27T17:45:07.314Z,13.15
2022-10-27T17:47:37.024Z,13.43
2022-10-27T17:50:08.979Z,14.68
2022-10-27T17:52:38.262Z,14.73
2022-10-27T17:55:08.596Z,13.73
2022-10-27T17:57:36.816Z,14.77
2022-10-27T18:00:05.692Z,14.23
2022-10-27T18:02:35.059Z,15.52
2022-10-27T18:05:05.088Z,15.90
2022-10-27T18:07:33.399Z,13.95
2022-10-27T18:10:01.958Z,14.07
2022-10-27T18:12:30.362Z,13.82
2022-10-27T18:15:17.477Z,15.55
2022-10-27T18:17:49.810Z,15.50
2022-10-27T18:20:19.693Z,14.38
2022-10-27T18:22:48.191Z,14.23
2022-10-27T18:25:16.711Z,13.30
2022-10-27T18:27:45.251Z,12.90
2022-10-27T18:30:14.209Z,13.60
2022-10-27T18:32:42.841Z,15.50
2022-10-27T18:35:11.277Z,14.25
2022-10-27T18:37:40.880Z,15.40
2022-10-27T18:40:10.525Z,16.52
2022-10-27T18:42:38.749Z,14.00
2022-10-27T18:45:08.251Z,17.20
2022-10-27T18:47:36.613Z,13.43
2022-10-27T18:50:09.499Z,15.48
2022-10-27T18:52:40.062Z,15.13
2022-10-27T18:55:09.058Z,15.98
2022-10-27T18:57:37.345Z,14.50
2022-10-27T19:00:06.976Z,15.57
2022-10-27T19:02:35.575Z,15.68
2022-10-27T19:05:04.350Z,15.80
2022-10-27T19:07:32.854Z,15.55
2022-10-27T19:10:02.802Z,16.70
2022-10-27T19:12:31.329Z,16.45
2022-10-27T19:14:59.831Z,14.40
2022-10-27T19:17:28.240Z,13.48
2022-10-27T19:19:57.248Z,13.48
2022-10-27T19:22:25.517Z,12.38
2022-10-27T19:24:54.261Z,12.88
2022-10-27T19:27:24.076Z,11.35
2022-10-27T19:29:53.482Z,10.60
2022-10-27T19:32:21.994Z,11.15
2022-10-27T19:34:50.516Z,11.20
2022-10-27T19:37:18.919Z,10.05
2022-10-27T19:39:47.714Z,10.38
2022-10-27T19:42:16.282Z,9.63
2022-10-27T19:44:46.066Z,8.88
2022-10-27T19:47:14.412Z,9.93
2022-10-27T19:49:43.112Z,9.40
2022-10-27T19:52:11.696Z,9.20
2022-10-27T19:54:40.362Z,9.13
2022-10-27T19:57:09.600Z,9.40
2022-10-27T19:59:39.200Z,8.60
2022-10-27T20:02:11.261Z,8.10
2022-10-27T20:04:40.203Z,9.07
2022-10-27T20:07:08.580Z,10.30
2022-10-27T20:09:37.179Z,9.25
2022-10-27T20:12:05.711Z,9.15
2022-10-27T20:14:36.355Z,10.27
2022-10-27T20:17:05.264Z,9.68
2022-10-27T20:19:38.080Z,9.38
2022-10-27T20:22:06.757Z,9.63
2022-10-27T20:24:35.541Z,9.80
2022-10-27T20:27:04.051Z,10.35
2022-10-27T20:29:35.229Z,11.48
2022-10-27T20:32:04.040Z,12.63
2022-10-27T20:34:39.334Z,12.60
2022-10-27T20:37:08.491Z,12.93
2022-10-27T20:39:37.088Z,13.75
2022-10-27T20:42:05.671Z,13.98
2022-10-27T20:44:34.367Z,14.25
2022-10-27T20:47:02.642Z,13.73
2022-10-27T20:49:31.242Z,14.07
2022-10-27T20:52:01.194Z,13.15
2022-10-27T20:54:30.874Z,14.98
2022-10-27T20:56:59.122Z,15.50
2022-10-27T20:59:28.088Z,16.30
2022-10-27T21:01:56.631Z,16.90
2022-10-27T21:04:25.400Z,16.15
2022-10-27T21:06:53.951Z,16.40
2022-10-27T21:09:23.796Z,16.58
2022-10-27T21:11:52.524Z,17.33
2022-10-27T21:14:22.334Z,16.52
2022-10-27T21:16:52.253Z,17.67
2022-10-27T21:19:20.808Z,16.63
2022-10-27T21:21:49.332Z,16.40
2022-10-27T21:24:18.514Z,17.10
2022-10-27T21:26:48.534Z,15.88
2022-10-27T21:29:17.124Z,17.38
2022-10-27T21:31:46.762Z,16.30
2022-10-27T21:34:15.918Z,17.73
2022-10-27T21:36:44.184Z,17.52
2022-10-27T21:39:14.756Z,19.55
2022-10-27T21:41:43.076Z,20.10
2022-10-27T21:44:13.157Z,18.40
2022-10-27T21:46:41.464Z,17.67
2022-10-27T21:49:12.118Z,19.70
2022-10-27T21:51:40.511Z,18.02
2022-10-27T21:54:09.045Z,18.33
2022-10-27T21:56:37.411Z,18.75
2022-10-27T21:59:06.325Z,18.20
2022-10-27T22:01:36.319Z,17.80
2022-10-27T22:04:05.703Z,18.35
2022-10-27T22:06:35.708Z,17.08
2022-10-27T22:09:04.897Z,16.42
2022-10-27T22:11:35.269Z,16.60
2022-10-27T22:14:05.081Z,17.33
2022-10-27T22:16:36.752Z,15.52
2022-10-27T22:19:07.158Z,16.75
2022-10-27T22:21:37.486Z,17.35
2022-10-27T22:24:07.809Z,17.00
2022-10-27T22:26:38.936Z,15.82
2022-10-27T22:29:07.804Z,16.67
2022-10-27T22:31:37.467Z,16.40
2022-10-27T22:34:06.249Z,16.75
2022-10-27T22:36:34.951Z,16.52
2022-10-27T22:39:04.882Z,15.73
2022-10-27T22:41:35.068Z,14.57
2022-10-27T22:44:05.393Z,14.27
2022-10-27T22:46:36.146Z,13.45
2022-10-27T22:49:06.153Z,12.82
2022-10-27T22:51:35.222Z,11.68
2022-10-27T22:54:04.051Z,13.90
2022-10-27T22:56:34.057Z,12.02
2022-10-27T22:59:08.319Z,12.68
2022-10-27T23:01:40.046Z,11.85
2022-10-27T23:04:14.273Z,12.73
2022-10-27T23:06:42.946Z,13.55
2022-10-27T23:09:14.531Z,13.25
2022-10-27T23:11:43.113Z,12.13
2022-10-27T23:14:12.810Z,10.98
2022-10-27T23:16:41.879Z,11.95
2022-10-27T23:19:13.780Z,10.70
2022-10-27T23:21:42.260Z,10.48
2022-10-27T23:24:11.163Z,11.68
2022-10-27T23:26:40.779Z,11.05
2022-10-27T23:29:13.147Z,12.70
2022-10-27T23:31:41.526Z,12.05
2022-10-27T23:34:12.657Z,10.63
2022-10-27T23:36:41.579Z,12.27
2022-10-27T23:39:10.442Z,11.65
2022-10-27T23:41:38.725Z,11.48
2022-10-27T23:44:07.283Z,10.68
2022-10-27T23:46:35.632Z,11.00
2022-10-27T23:49:04.316Z,12.52
2022-10-27T23:51:33.981Z,13.95
2022-10-27T23:54:02.473Z,12.77
2022-10-27T23:56:30.726Z,13.15
2022-10-27T23:59:00.800Z,14.65
